Time;durP1;ratioP1;P1;durP2;ratioP2;P2;SDS_P1;SDS_P2;PMS_P1;PMS_P2;Temp;Humidity;BMP_temperature;BMP_pressure;BME280_temperature;BME280_humidity;BME280_pressure;Samples;Min_cycle;Max_cycle;Signal;HPM_P1;HPM_P2
2021/11/05 00:02:53;;;;;;;4.20;3.90;;;9.80;99.90;;;;;;10319789;28;20237;-84
2021/11/05 00:07:56;;;;;;;4.53;4.20;;;9.80;99.90;;;;;;10348228;28;20223;-83
2021/11/05 00:12:58;;;;;;;4.30;4.03;;;9.80;99.90;;;;;;10352075;28;20206;-84
2021/11/05 00:18:02;;;;;;;3.97;3.67;;;9.70;99.90;;;;;;10350990;28;20591;-83
2021/11/05 00:23:04;;;;;;;4.30;4.00;;;9.80;99.90;;;;;;10331365;28;20215;-83
2021/11/05 00:28:06;;;;;;;4.80;4.50;;;9.80;99.90;;;;;;10349877;28;20230;-83
2021/11/05 00:33:10;;;;;;;4.10;3.90;;;9.80;99.90;;;;;;10341432;28;20236;-83
2021/11/05 00:38:12;;;;;;;4.63;4.23;;;9.80;99.90;;;;;;10366695;28;20226;-83
2021/11/05 00:43:15;;;;;;;4.80;4.50;;;9.80;99.90;;;;;;10359409;28;20215;-83
2021/11/05 00:48:18;;;;;;;4.13;3.93;;;9.90;99.90;;;;;;10374360;28;20306;-83
2021/11/05 00:53:20;;;;;;;4.40;4.10;;;9.90;99.90;;;;;;10371360;28;20770;-83
2021/11/05 00:58:22;;;;;;;4.60;4.30;;;9.90;99.90;;;;;;10389039;28;20592;-84
2021/11/05 01:03:26;;;;;;;4.63;4.33;;;9.90;99.90;;;;;;10355683;28;20589;-83
2021/11/05 01:08:28;;;;;;;4.53;4.23;;;9.90;99.90;;;;;;10370514;28;20600;-83
2021/11/05 01:13:30;;;;;;;4.73;4.43;;;9.80;99.90;;;;;;10340854;28;20226;-83
2021/11/05 01:18:34;;;;;;;4.33;4.13;;;9.90;99.90;;;;;;10380256;28;20215;-83
2021/11/05 01:23:36;;;;;;;4.60;4.30;;;9.80;99.90;;;;;;10350785;28;20615;-82
2021/11/05 01:28:38;;;;;;;4.57;4.17;;;9.80;99.90;;;;;;10364167;28;20226;-83
2021/11/05 01:33:42;;;;;;;4.70;4.40;;;9.90;99.90;;;;;;10374802;28;20214;-83
2021/11/05 01:38:45;;;;;;;4.50;4.20;;;9.90;99.90;;;;;;10372582;28;20631;-83
2021/11/05 01:43:47;;;;;;;4.50;4.20;;;9.90;99.90;;;;;;10336084;28;20218;-83
2021/11/05 01:48:51;;;;;;;5.53;5.13;;;9.90;99.90;;;;;;10338131;28;20300;-83
2021/11/05 01:53:53;;;;;;;4.60;4.20;;;9.90;99.90;;;;;;10350399;28;20210;-83
2021/11/05 01:58:55;;;;;;;4.90;4.60;;;9.80;99.90;;;;;;10346010;28;20678;-83
2021/11/05 02:03:58;;;;;;;5.17;4.77;;;9.70;99.90;;;;;;10337367;28;20207;-83
2021/11/05 02:09:03;;;;;;;4.87;4.57;;;9.70;99.90;;;;;;10351297;28;20222;-83
2021/11/05 02:14:06;;;;;;;4.93;4.53;;;9.60;99.90;;;;;;10367453;28;20213;-83
2021/11/05 02:19:13;;;;;;;4.83;4.53;;;9.50;99.90;;;;;;10350054;28;20600;-83
2021/11/05 02:24:18;;;;;;;4.73;4.43;;;9.40;99.90;;;;;;10368879;28;20237;-84
2021/11/05 02:29:20;;;;;;;4.67;4.37;;;9.40;99.90;;;;;;10373442;28;20729;-83
2021/11/05 02:34:22;;;;;;;4.20;4.00;;;9.30;99.90;;;;;;10345557;28;20217;-83
2021/11/05 02:39:26;;;;;;;4.60;4.30;;;9.30;99.90;;;;;;10380111;28;20225;-83
2021/11/05 02:44:29;;;;;;;4.37;4.17;;;9.30;99.90;;;;;;10366830;28;20214;-83
2021/11/05 02:49:31;;;;;;;4.87;4.57;;;9.30;99.90;;;;;;10360470;28;20294;-83
2021/11/05 02:54:34;;;;;;;5.10;4.70;;;9.30;99.90;;;;;;10366520;28;20801;-83
2021/11/05 02:59:37;;;;;;;3.83;3.63;;;9.40;99.90;;;;;;10357213;28;20230;-83
2021/11/05 03:04:39;;;;;;;4.67;4.37;;;9.40;99.90;;;;;;10358382;28;20222;-83
2021/11/05 03:09:43;;;;;;;4.50;4.30;;;9.40;99.90;;;;;;10365128;28;20590;-83
2021/11/05 03:14:45;;;;;;;4.60;4.40;;;9.40;99.90;;;;;;10349684;28;20213;-83
2021/11/05 03:19:47;;;;;;;5.43;5.10;;;9.50;99.90;;;;;;10381717;28;20246;-84
2021/11/05 03:24:51;;;;;;;5.03;4.73;;;9.60;99.90;;;;;;10357301;28;20228;-83
2021/11/05 03:29:53;;;;;;;5.57;5.17;;;9.60;99.90;;;;;;10381274;28;20224;-83
2021/11/05 03:34:55;;;;;;;5.10;4.80;;;9.60;99.90;;;;;;10365372;28;20221;-83
2021/11/05 03:39:58;;;;;;;4.97;4.60;;;9.60;99.90;;;;;;10357339;28;20683;-83
2021/11/05 03:45:01;;;;;;;5.07;4.77;;;9.60;99.90;;;;;;10356270;28;20640;-83
2021/11/05 03:50:03;;;;;;;5.20;4.00;;;9.60;99.90;;;;;;10375395;28;20278;-83
2021/11/05 03:55:08;;;;;;;3.97;3.77;;;9.60;99.90;;;;;;10362204;28;20216;-83
2021/11/05 04:00:12;;;;;;;4.53;4.13;;;9.70;99.90;;;;;;10359244;28;20226;-83
2021/11/05 04:05:14;;;;;;;3.93;3.73;;;9.70;99.90;;;;;;10346182;28;20305;-83
2021/11/05 04:10:17;;;;;;;4.13;3.93;;;9.70;99.90;;;;;;10348031;28;20230;-83
2021/11/05 04:15:19;;;;;;;3.83;3.63;;;9.70;99.90;;;;;;10339288;28;20207;-83
2021/11/05 04:20:21;;;;;;;4.40;4.20;;;9.70;99.90;;;;;;10363675;28;20226;-83
2021/11/05 04:25:25;;;;;;;3.53;3.33;;;9.70;99.90;;;;;;10363920;28;20224;-83
2021/11/05 04:30:27;;;;;;;4.00;3.80;;;9.70;99.90;;;;;;10336685;28;20229;-83
2021/11/05 04:35:29;;;;;;;4.13;3.83;;;9.70;99.90;;;;;;10341563;28;20247;-84
2021/11/05 04:40:33;;;;;;;4.53;4.30;;;9.70;99.90;;;;;;10388103;28;20225;-83
2021/11/05 04:45:36;;;;;;;3.90;3.70;;;9.70;99.90;;;;;;10371960;28;20298;-83
2021/11/05 04:50:38;;;;;;;3.60;3.40;;;9.70;99.90;;;;;;10383409;28;20253;-83
2021/11/05 04:55:42;;;;;;;4.10;3.90;;;9.80;99.90;;;;;;10355711;28;20245;-83
2021/11/05 05:00:44;;;;;;;3.90;3.70;;;9.80;99.90;;;;;;10340115;28;20821;-83
2021/11/05 05:05:46;;;;;;;3.37;3.20;;;9.80;99.90;;;;;;10372013;28;20215;-83
2021/11/05 05:10:50;;;;;;;2.73;2.63;;;9.80;99.90;;;;;;10376987;28;20231;-83
2021/11/05 05:15:52;;;;;;;3.40;3.20;;;9.80;99.90;;;;;;10371761;28;20224;-83
2021/11/05 05:20:54;;;;;;;3.33;3.13;;;9.80;99.90;;;;;;10390100;28;20271;-83
2021/11/05 05:25:57;;;;;;;3.50;3.30;;;9.70;99.90;;;;;;10375775;28;20241;-83
2021/11/05 05:31:00;;;;;;;3.00;2.90;;;9.60;99.90;;;;;;10377700;28;20229;-83
2021/11/05 05:36:03;;;;;;;2.60;2.50;;;9.60;99.90;;;;;;10355704;28;20233;-83
2021/11/05 05:41:08;;;;;;;3.27;3.10;;;9.60;99.90;;;;;;10335156;28;20223;-83
2021/11/05 05:46:10;;;;;;;3.70;3.50;;;9.60;99.90;;;;;;10349981;28;20717;-82
2021/11/05 05:51:12;;;;;;;3.67;3.47;;;9.60;99.90;;;;;;10364501;28;20234;-84
2021/11/05 05:56:15;;;;;;;3.23;3.03;;;9.70;99.90;;;;;;10342660;28;20235;-82
2021/11/05 06:01:17;;;;;;;3.30;3.20;;;9.70;99.90;;;;;;10311162;23;20263;-84
2021/11/05 06:06:20;;;;;;;3.37;3.17;;;9.70;99.90;;;;;;10266321;28;20358;-84
2021/11/05 06:11:24;;;;;;;4.80;4.50;;;9.80;99.90;;;;;;10279716;28;20345;-84
2021/11/05 06:16:26;;;;;;;7.37;6.87;;;9.80;99.90;;;;;;10299520;28;20277;-83
2021/11/05 06:21:28;;;;;;;4.87;4.57;;;9.80;99.90;;;;;;10287038;28;20220;-85
2021/11/05 06:26:32;;;;;;;4.63;4.33;;;9.80;99.90;;;;;;10296278;28;20226;-83
2021/11/05 06:31:34;;;;;;;4.20;4.00;;;9.90;99.90;;;;;;10281704;28;20326;-83
2021/11/05 06:36:36;;;;;;;4.20;4.00;;;9.90;99.90;;;;;;10319560;28;20489;-83
2021/11/05 06:41:40;;;;;;;3.70;3.50;;;9.90;99.90;;;;;;10310098;28;20281;-83
2021/11/05 06:46:42;;;;;;;4.27;3.97;;;9.90;99.90;;;;;;10307199;28;20278;-84
2021/11/05 06:51:44;;;;;;;5.23;4.93;;;10.00;99.90;;;;;;10305925;28;20346;-83
2021/11/05 06:56:47;;;;;;;4.43;4.13;;;10.00;99.90;;;;;;10306255;28;20269;-84
2021/11/05 07:01:50;;;;;;;4.03;3.83;;;10.00;99.90;;;;;;10324606;28;20242;-84
2021/11/05 07:06:53;;;;;;;4.60;4.37;;;10.00;99.90;;;;;;10297534;28;20232;-84
2021/11/05 07:11:56;;;;;;;4.83;4.53;;;9.90;99.90;;;;;;10311250;28;20330;-84
2021/11/05 07:16:59;;;;;;;4.63;4.40;;;9.90;99.90;;;;;;10311749;28;20219;-84
2021/11/05 07:22:02;;;;;;;4.93;4.63;;;9.80;99.90;;;;;;10301112;28;20757;-84
2021/11/05 07:27:07;;;;;;;8.07;7.47;;;9.80;99.90;;;;;;10302448;28;20678;-84
2021/11/05 07:32:09;;;;;;;5.27;4.97;;;9.80;99.90;;;;;;10318510;28;20301;-83
2021/11/05 07:37:15;;;;;;;4.90;4.70;;;9.90;99.90;;;;;;10309052;28;20250;-83
2021/11/05 07:42:18;;;;;;;4.37;4.07;;;9.90;99.90;;;;;;10332868;28;20242;-84
2021/11/05 07:47:23;;;;;;;4.27;4.00;;;9.90;99.90;;;;;;10307439;28;20222;-83
2021/11/05 07:52:25;;;;;;;4.27;4.00;;;9.90;99.90;;;;;;10285065;28;20326;-84
2021/11/05 07:57:29;;;;;;;4.77;4.40;;;9.90;99.90;;;;;;10305066;28;20230;-84
2021/11/05 08:02:31;;;;;;;4.17;3.87;;;9.90;99.90;;;;;;10326350;28;20203;-84
2021/11/05 08:07:33;;;;;;;4.90;4.50;;;10.00;99.90;;;;;;10321841;28;20599;-84
2021/11/05 08:12:36;;;;;;;5.50;5.00;;;10.10;99.90;;;;;;10289691;28;20251;-84
2021/11/05 08:17:39;;;;;;;4.97;4.57;;;10.20;99.90;;;;;;10311008;28;20261;-84
2021/11/05 08:22:42;;;;;;;3.70;3.50;;;10.20;99.90;;;;;;10323638;28;20231;-84
2021/11/05 08:27:47;;;;;;;4.57;4.27;;;10.30;99.90;;;;;;10288017;28;20230;-84
2021/11/05 08:32:51;;;;;;;4.33;3.80;;;10.40;99.90;;;;;;10321561;28;20277;-84
2021/11/05 08:37:53;;;;;;;4.70;4.30;;;10.50;99.90;;;;;;10313533;28;20231;-85
2021/11/05 08:42:58;;;;;;;4.77;4.03;;;10.70;99.90;;;;;;10295117;28;20262;-84
2021/11/05 08:48:02;;;;;;;4.30;4.00;;;10.70;99.90;;;;;;10321739;28;20273;-83
2021/11/05 08:53:07;;;;;;;3.43;3.23;;;10.80;99.90;;;;;;10322462;28;20338;-84
2021/11/05 08:58:11;;;;;;;3.20;3.00;;;10.80;99.90;;;;;;10298699;28;20271;-84
2021/11/05 09:03:15;;;;;;;3.17;3.07;;;10.90;99.90;;;;;;10307100;28;20235;-84
2021/11/05 09:08:17;;;;;;;3.30;3.10;;;10.90;99.90;;;;;;10323615;28;20224;-84
2021/11/05 09:13:20;;;;;;;3.37;3.17;;;11.00;99.90;;;;;;10328383;28;20618;-84
2021/11/05 09:18:23;;;;;;;3.20;3.00;;;10.90;99.90;;;;;;10307738;28;20254;-84
2021/11/05 09:23:25;;;;;;;3.00;2.90;;;11.00;99.90;;;;;;10321585;28;20214;-84
2021/11/05 09:28:29;;;;;;;2.77;2.57;;;11.10;99.90;;;;;;10307820;28;20318;-83
2021/11/05 09:33:31;;;;;;;3.13;2.93;;;11.20;99.90;;;;;;10321651;28;20351;-84
2021/11/05 09:38:33;;;;;;;5.13;2.80;;;11.30;99.90;;;;;;10302756;28;20235;-84
2021/11/05 09:44:01;;;;;;;3.20;2.90;;;11.30;99.90;;;;;;10305175;28;20204;-84
2021/11/05 09:49:08;;;;;;;3.20;3.00;;;11.40;99.90;;;;;;10294360;28;20632;-84
2021/11/05 09:54:14;;;;;;;3.40;3.20;;;11.30;99.90;;;;;;10320722;28;20676;-84
2021/11/05 09:59:18;;;;;;;3.80;3.60;;;11.30;99.90;;;;;;10295553;28;20236;-84
2021/11/05 10:04:20;;;;;;;3.80;3.60;;;11.30;99.90;;;;;;10301859;28;20218;-84
2021/11/05 10:09:24;;;;;;;3.70;3.50;;;11.30;99.90;;;;;;10315162;28;20234;-84
2021/11/05 10:14:27;;;;;;;4.30;4.00;;;11.40;99.90;;;;;;10302933;28;20277;-85
2021/11/05 10:19:46;;;;;;;5.47;4.10;;;11.50;99.90;;;;;;10306502;28;20231;-84
2021/11/05 10:24:48;;;;;;;4.30;4.10;;;11.60;99.90;;;;;;10314907;28;20210;-84
2021/11/05 10:29:52;;;;;;;3.97;3.77;;;11.60;99.90;;;;;;10328469;28;20322;-84
2021/11/05 10:34:56;;;;;;;4.80;4.50;;;11.70;99.90;;;;;;10317795;28;20227;-84
2021/11/05 10:40:11;;;;;;;5.00;4.60;;;11.80;99.90;;;;;;10299727;28;20293;-84
2021/11/05 10:45:18;;;;;;;4.87;4.57;;;11.80;99.90;;;;;;10315169;28;20234;-85
2021/11/05 10:50:21;;;;;;;5.53;5.10;;;11.80;99.90;;;;;;10326627;28;20295;-84
2021/11/05 10:55:25;;;;;;;5.53;5.23;;;11.80;99.90;;;;;;10328840;28;20207;-84
2021/11/05 11:00:30;;;;;;;5.80;5.50;;;11.90;99.90;;;;;;10297705;28;20223;-85
2021/11/05 11:05:34;;;;;;;6.00;5.53;;;11.90;99.90;;;;;;10298580;28;20303;-84
2021/11/05 11:10:38;;;;;;;5.93;5.53;;;12.00;99.90;;;;;;10292694;28;20287;-84
2021/11/05 11:15:44;;;;;;;6.60;6.20;;;11.90;99.90;;;;;;10298300;28;20299;-84
2021/11/05 11:20:46;;;;;;;7.00;6.40;;;11.90;99.90;;;;;;10306719;28;20251;-84
2021/11/05 11:25:49;;;;;;;6.43;5.93;;;11.80;99.90;;;;;;10284260;28;20219;-83
2021/11/05 11:30:53;;;;;;;8.40;7.60;;;11.70;99.90;;;;;;10273047;28;20227;-83
2021/11/05 11:35:55;;;;;;;7.17;6.60;;;11.70;99.90;;;;;;10322485;28;20219;-83
2021/11/05 11:41:00;;;;;;;8.57;7.87;;;11.70;99.90;;;;;;10296716;28;20314;-83
2021/11/05 11:46:03;;;;;;;7.83;7.13;;;11.70;99.90;;;;;;10305089;28;20266;-82
2021/11/05 11:51:32;;;;;;;8.07;7.50;;;11.80;99.90;;;;;;10318254;28;20251;-83
2021/11/05 11:56:37;;;;;;;7.77;7.20;;;11.90;99.90;;;;;;10323024;28;20707;-83
2021/11/05 12:01:44;;;;;;;8.63;8.03;;;11.90;99.90;;;;;;10327770;23;20231;-83
2021/11/05 12:07:07;;;;;;;7.87;7.33;;;11.90;99.90;;;;;;10273004;28;20228;-83
2021/11/05 12:12:30;;;;;;;7.07;6.50;;;11.90;99.90;;;;;;10290957;28;20241;-83
2021/11/05 12:18:07;;;;;;;7.30;6.80;;;12.00;99.90;;;;;;10298076;28;20294;-84
2021/11/05 12:23:22;;;;;;;8.20;7.60;;;12.00;99.90;;;;;;10298510;28;20206;-84
2021/11/05 12:28:30;;;;;;;7.00;6.50;;;12.00;99.90;;;;;;10312744;28;20691;-84
2021/11/05 12:33:36;;;;;;;7.73;7.13;;;12.10;99.90;;;;;;10315339;28;20840;-84
2021/11/05 12:39:00;;;;;;;8.70;7.93;;;12.10;99.90;;;;;;10316280;28;20245;-83
2021/11/05 12:44:13;;;;;;;7.97;7.40;;;12.20;99.90;;;;;;10337013;28;20203;-83
2021/11/05 12:49:19;;;;;;;8.00;7.40;;;12.30;99.90;;;;;;10312513;28;20254;-83
2021/11/05 12:54:23;;;;;;;6.67;6.20;;;12.30;99.90;;;;;;10304929;28;20238;-84
2021/11/05 12:59:28;;;;;;;7.50;6.90;;;12.30;99.90;;;;;;10308753;28;20234;-83
2021/11/05 13:04:33;;;;;;;8.60;7.80;;;12.40;99.90;;;;;;10308439;28;20294;-84
2021/11/05 13:09:38;;;;;;;8.30;7.70;;;12.40;99.90;;;;;;10318041;28;20231;-83
2021/11/05 13:14:46;;;;;;;9.87;8.87;;;12.40;99.90;;;;;;10326962;28;20200;-83
2021/11/05 13:19:57;;;;;;;18.17;16.47;;;12.30;99.90;;;;;;10321815;28;20232;-83
2021/11/05 13:25:18;;;;;;;11.07;10.00;;;12.30;99.90;;;;;;10288908;28;20635;-84
2021/11/05 13:30:34;;;;;;;10.10;9.20;;;12.30;99.90;;;;;;10319406;28;20699;-83
2021/11/05 13:35:47;;;;;;;9.33;8.53;;;12.30;99.90;;;;;;10315367;28;20293;-84
2021/11/05 13:40:52;;;;;;;9.33;8.63;;;12.30;99.90;;;;;;10328345;28;20227;-84
2021/11/05 13:45:56;;;;;;;9.30;8.70;;;12.40;99.90;;;;;;10325044;28;20207;-83
2021/11/05 13:51:08;;;;;;;10.87;9.97;;;12.40;99.90;;;;;;10309404;28;20766;-83
2021/11/05 13:56:15;;;;;;;11.33;10.33;;;12.40;99.90;;;;;;10316187;28;20243;-84
2021/11/05 14:01:20;;;;;;;11.50;10.57;;;12.40;99.90;;;;;;10330004;28;20243;-84
2021/11/05 14:06:25;;;;;;;12.47;11.47;;;12.30;99.90;;;;;;10336168;28;20208;-84
2021/11/05 14:11:29;;;;;;;11.03;10.13;;;12.30;99.90;;;;;;10314413;28;20295;-83
2021/11/05 14:16:41;;;;;;;12.83;11.83;;;12.30;99.90;;;;;;10298137;28;20683;-83
2021/11/05 14:21:46;;;;;;;12.20;11.20;;;12.30;99.90;;;;;;10303402;28;20290;-83
2021/11/05 14:27:07;;;;;;;12.97;11.87;;;12.30;99.90;;;;;;10285419;28;20667;-83
2021/11/05 14:32:14;;;;;;;12.30;11.30;;;12.30;99.90;;;;;;10286278;28;20234;-83
2021/11/05 14:37:24;;;;;;;13.33;12.13;;;12.20;99.90;;;;;;10329185;28;20199;-84
2021/11/05 14:42:30;;;;;;;11.23;10.23;;;12.20;99.90;;;;;;10300931;28;20258;-84
2021/11/05 14:47:41;;;;;;;11.57;10.67;;;12.20;99.90;;;;;;10293110;28;20203;-83
2021/11/05 14:52:53;;;;;;;13.80;12.50;;;12.20;99.90;;;;;;10333760;28;20270;-84
2021/11/05 14:58:11;;;;;;;15.67;14.37;;;12.10;99.90;;;;;;10295460;28;20319;-83
2021/11/05 15:03:24;;;;;;;15.27;13.83;;;12.00;99.90;;;;;;10308175;28;20206;-83
2021/11/05 15:08:28;;;;;;;14.27;13.00;;;11.90;99.90;;;;;;10317600;28;20592;-82
2021/11/05 15:13:32;;;;;;;14.47;13.27;;;11.80;99.90;;;;;;10292817;28;20625;-83
2021/11/05 15:18:36;;;;;;;15.67;14.33;;;11.70;99.90;;;;;;10287203;28;20647;-83
2021/11/05 15:23:43;;;;;;;16.57;15.17;;;11.70;99.90;;;;;;10286993;28;20683;-84
2021/11/05 15:28:48;;;;;;;18.60;17.03;;;11.60;99.90;;;;;;10275448;28;20232;-84
2021/11/05 15:33:50;;;;;;;17.23;15.63;;;11.60;99.90;;;;;;10302282;28;20227;-84
2021/11/05 15:38:56;;;;;;;16.43;15.00;;;11.50;99.90;;;;;;10329544;28;20223;-84
2021/11/05 15:43:59;;;;;;;16.27;14.77;;;11.50;99.90;;;;;;10292467;28;20207;-84
2021/11/05 15:49:02;;;;;;;16.80;15.40;;;11.40;99.90;;;;;;10321247;28;20241;-84
2021/11/05 15:54:06;;;;;;;16.00;14.60;;;11.40;99.90;;;;;;10314084;28;20642;-84
2021/11/05 15:59:08;;;;;;;17.00;15.60;;;11.30;99.90;;;;;;10292853;28;20342;-84
2021/11/05 16:04:10;;;;;;;17.57;16.07;;;11.30;99.90;;;;;;10297392;28;20202;-84
2021/11/05 16:09:14;;;;;;;16.43;15.13;;;11.20;99.90;;;;;;10305006;28;20223;-84
2021/11/05 16:14:16;;;;;;;18.33;16.63;;;11.20;99.90;;;;;;10292792;28;20290;-84
2021/11/05 16:19:19;;;;;;;17.40;15.73;;;11.20;99.90;;;;;;10294270;28;20294;-84
2021/11/05 16:24:22;;;;;;;17.67;16.07;;;11.20;99.90;;;;;;10296319;28;20238;-84
2021/11/05 16:29:24;;;;;;;17.97;16.20;;;11.20;99.90;;;;;;10304523;28;20239;-84
2021/11/05 16:34:26;;;;;;;16.60;15.20;;;11.20;99.90;;;;;;10311651;28;20278;-84
2021/11/05 16:39:30;;;;;;;17.30;15.70;;;11.20;99.90;;;;;;10312493;28;20778;-84
2021/11/05 16:44:32;;;;;;;18.60;16.90;;;11.20;99.90;;;;;;10295204;28;20207;-84
2021/11/05 16:49:36;;;;;;;17.40;15.80;;;11.20;99.90;;;;;;10310851;28;20231;-84
2021/11/05 16:54:39;;;;;;;18.20;16.60;;;11.20;99.90;;;;;;10294907;28;20219;-84
2021/11/05 16:59:42;;;;;;;19.40;17.50;;;11.20;99.90;;;;;;10298573;28;20234;-84
2021/11/05 17:04:45;;;;;;;18.67;16.97;;;11.10;99.90;;;;;;10292990;28;20203;-84
2021/11/05 17:09:50;;;;;;;16.30;14.77;;;11.10;99.90;;;;;;10290033;28;20236;-84
2021/11/05 17:14:52;;;;;;;15.93;14.47;;;11.10;99.90;;;;;;10295963;28;20258;-84
2021/11/05 17:19:54;;;;;;;22.27;20.27;;;11.00;99.90;;;;;;10291844;28;20231;-84
2021/11/05 17:24:59;;;;;;;18.07;16.57;;;10.80;99.90;;;;;;10307553;28;20196;-84
2021/11/05 17:30:01;;;;;;;16.73;15.03;;;10.70;99.90;;;;;;10294356;28;20219;-84
2021/11/05 17:35:06;;;;;;;17.70;15.07;;;10.50;99.90;;;;;;10317059;28;20234;-84
2021/11/05 17:40:13;;;;;;;17.43;15.93;;;10.40;99.90;;;;;;10292019;28;20344;-84
2021/11/05 17:45:16;;;;;;;26.43;23.93;;;10.30;99.90;;;;;;10315034;28;20228;-84
2021/11/05 17:50:18;;;;;;;20.83;19.00;;;10.20;99.90;;;;;;10333367;28;20231;-84
2021/11/05 17:55:23;;;;;;;18.90;17.17;;;10.20;99.90;;;;;;10336100;28;20223;-84
2021/11/05 18:00:30;;;;;;;20.13;18.23;;;10.10;99.90;;;;;;10311492;28;20227;-85
2021/11/05 18:05:35;;;;;;;19.70;17.90;;;10.00;99.90;;;;;;10305339;28;20218;-84
2021/11/05 18:10:39;;;;;;;21.37;19.43;;;9.90;99.90;;;;;;10322260;28;20286;-84
2021/11/05 18:15:44;;;;;;;19.73;17.97;;;9.80;99.90;;;;;;10316964;28;20735;-84
2021/11/05 18:20:46;;;;;;;21.53;19.63;;;9.80;99.90;;;;;;10318072;28;20827;-83
2021/11/05 18:25:51;;;;;;;24.43;21.00;;;9.70;99.90;;;;;;10307713;28;20211;-84
2021/11/05 18:30:54;;;;;;;24.13;21.90;;;9.60;99.90;;;;;;10309307;28;20238;-84
2021/11/05 18:35:56;;;;;;;20.43;18.67;;;9.60;99.90;;;;;;10330424;28;20203;-83
2021/11/05 18:41:00;;;;;;;22.10;20.00;;;9.50;99.90;;;;;;10320719;28;20223;-83
2021/11/05 18:46:02;;;;;;;20.63;18.83;;;9.50;99.90;;;;;;10304138;28;20283;-83
2021/11/05 18:51:05;;;;;;;20.40;18.47;;;9.50;99.90;;;;;;10323923;28;22170;-83
2021/11/05 18:56:08;;;;;;;20.00;18.10;;;9.50;99.90;;;;;;10327576;28;20218;-85
2021/11/05 19:01:11;;;;;;;21.10;19.00;;;9.50;99.90;;;;;;10315615;28;20242;-84
2021/11/05 19:06:15;;;;;;;20.50;18.50;;;9.50;99.90;;;;;;10343543;28;20203;-84
2021/11/05 19:11:18;;;;;;;21.13;19.33;;;9.50;99.90;;;;;;10327509;28;20330;-84
2021/11/05 19:16:20;;;;;;;36.13;32.53;;;9.40;99.90;;;;;;10345869;28;20207;-83
2021/11/05 19:21:25;;;;;;;25.10;22.60;;;9.40;99.90;;;;;;10331997;28;20227;-84
2021/11/05 19:26:29;;;;;;;34.80;30.20;;;9.50;99.90;;;;;;10342434;28;20221;-83
2021/11/05 19:31:31;;;;;;;30.87;26.77;;;9.50;99.90;;;;;;10312260;28;20653;-83
2021/11/05 19:36:34;;;;;;;22.37;20.13;;;9.50;99.90;;;;;;10294166;28;20242;-83
2021/11/05 19:41:39;;;;;;;18.67;16.87;;;9.60;99.90;;;;;;10315528;28;20230;-83
2021/11/05 19:46:41;;;;;;;18.90;17.20;;;9.70;99.90;;;;;;10319320;28;20207;-84
2021/11/05 19:51:44;;;;;;;21.70;19.70;;;9.70;99.90;;;;;;10333484;28;20268;-83
2021/11/05 19:56:48;;;;;;;20.67;18.40;;;9.70;99.90;;;;;;10329103;28;20267;-84
2021/11/05 20:01:50;;;;;;;17.77;16.03;;;9.80;99.90;;;;;;10323185;28;20230;-83
2021/11/05 20:06:55;;;;;;;17.20;15.57;;;9.80;99.90;;;;;;10282878;28;20222;-83
2021/11/05 20:11:58;;;;;;;16.90;15.40;;;9.80;99.90;;;;;;10292748;28;20242;-83
2021/11/05 20:17:05;;;;;;;19.50;17.63;;;9.80;99.90;;;;;;10295293;28;20212;-84
2021/11/05 20:22:07;;;;;;;18.40;16.70;;;9.80;99.90;;;;;;10269401;28;20235;-84
2021/11/05 20:27:16;;;;;;;20.37;18.37;;;9.80;99.90;;;;;;10293030;28;20266;-84
2021/11/05 20:32:19;;;;;;;19.80;17.90;;;9.80;99.90;;;;;;10271440;28;20323;-83
2021/11/05 20:37:22;;;;;;;23.10;21.00;;;9.80;99.90;;;;;;10278776;28;20216;-83
2021/11/05 20:42:25;;;;;;;21.73;19.60;;;9.80;99.90;;;;;;10323634;28;20239;-84
2021/11/05 20:47:27;;;;;;;20.97;17.90;;;9.80;99.90;;;;;;10293349;28;20215;-84
2021/11/05 20:52:29;;;;;;;20.20;18.20;;;9.80;99.90;;;;;;10281533;28;20220;-84
2021/11/05 20:57:33;;;;;;;20.57;18.47;;;9.80;99.90;;;;;;10277335;28;20266;-84
2021/11/05 21:02:35;;;;;;;19.40;17.63;;;9.70;99.90;;;;;;10292726;28;20202;-84
2021/11/05 21:07:39;;;;;;;19.00;17.10;;;9.70;99.90;;;;;;10305890;28;20207;-84
2021/11/05 21:12:43;;;;;;;20.20;18.37;;;9.70;99.90;;;;;;10295363;28;20868;-84
2021/11/05 21:17:45;;;;;;;20.20;18.30;;;9.70;99.90;;;;;;10285731;28;20222;-84
2021/11/05 21:22:47;;;;;;;20.17;18.27;;;9.70;99.90;;;;;;10309950;28;20242;-84
2021/11/05 21:27:53;;;;;;;22.87;20.57;;;9.70;99.90;;;;;;10288491;28;20231;-84
2021/11/05 21:32:55;;;;;;;24.47;21.97;;;9.70;99.90;;;;;;10287124;28;20228;-84
2021/11/05 21:37:58;;;;;;;20.87;18.90;;;9.70;99.90;;;;;;10314219;28;20242;-84
2021/11/05 21:43:02;;;;;;;21.13;19.20;;;9.80;99.90;;;;;;10283965;28;20565;-84
2021/11/05 21:48:05;;;;;;;22.30;20.10;;;9.80;99.90;;;;;;10283934;28;20239;-84
2021/11/05 21:53:07;;;;;;;20.83;18.90;;;9.80;99.90;;;;;;10293792;28;20215;-84
2021/11/05 21:58:11;;;;;;;20.50;18.60;;;9.80;99.90;;;;;;10291558;28;20239;-84
2021/11/05 22:03:13;;;;;;;20.17;17.90;;;9.80;99.90;;;;;;10282928;28;20748;-84
2021/11/05 22:08:16;;;;;;;18.70;16.80;;;9.80;99.90;;;;;;10286968;28;20697;-84
2021/11/05 22:13:19;;;;;;;19.80;18.00;;;9.70;99.90;;;;;;10277075;28;20238;-84
2021/11/05 22:18:21;;;;;;;19.80;18.00;;;9.70;99.90;;;;;;10293638;28;20231;-84
2021/11/05 22:23:24;;;;;;;25.87;23.40;;;9.70;99.90;;;;;;10266979;28;20204;-84
2021/11/05 22:28:27;;;;;;;21.50;19.50;;;9.70;99.90;;;;;;10274998;28;20225;-84
2021/11/05 22:33:30;;;;;;;20.03;18.23;;;9.60;99.90;;;;;;10314889;28;20314;-83
2021/11/05 22:38:33;;;;;;;19.43;17.67;;;9.60;99.90;;;;;;10265898;28;20323;-84
2021/11/05 22:43:36;;;;;;;17.50;15.90;;;9.50;99.90;;;;;;10275228;28;20208;-84
2021/11/05 22:48:39;;;;;;;18.90;17.20;;;9.40;99.90;;;;;;10308446;28;20222;-84
2021/11/05 22:53:41;;;;;;;17.33;15.90;;;9.40;99.90;;;;;;10295677;28;20311;-84
2021/11/05 22:58:44;;;;;;;17.37;15.83;;;9.30;99.90;;;;;;10290164;28;20234;-84
2021/11/05 23:03:46;;;;;;;16.33;14.87;;;9.20;99.90;;;;;;10268555;28;20216;-84
2021/11/05 23:08:49;;;;;;;15.30;13.90;;;9.10;99.90;;;;;;10265453;28;20216;-83
2021/11/05 23:13:52;;;;;;;14.60;13.20;;;9.10;99.90;;;;;;10265198;28;20718;-83
2021/11/05 23:18:54;;;;;;;15.20;13.90;;;9.00;99.90;;;;;;10282019;28;20223;-84
2021/11/05 23:23:56;;;;;;;15.03;13.63;;;8.90;99.90;;;;;;10286341;28;20203;-84
2021/11/05 23:29:01;;;;;;;15.33;13.83;;;8.80;99.90;;;;;;10277574;28;20605;-83
2021/11/05 23:34:03;;;;;;;16.57;15.17;;;8.80;99.90;;;;;;10278434;28;20318;-84
2021/11/05 23:39:06;;;;;;;16.30;14.90;;;8.70;99.90;;;;;;10278949;28;20314;-83
2021/11/05 23:44:09;;;;;;;18.50;16.70;;;8.70;99.90;;;;;;10294035;28;20254;-84
2021/11/05 23:49:11;;;;;;;20.47;18.43;;;8.60;99.90;;;;;;10278253;28;20318;-84
2021/11/05 23:54:14;;;;;;;19.03;17.33;;;8.50;99.90;;;;;;10276756;28;20223;-84
2021/11/05 23:59:17;;;;;;;21.17;19.17;;;8.50;99.90;;;;;;10297883;28;20257;-84
